Sunday, November 19, 2017, 5:33 AM EST
Back to Local

KLCI, Laconia, Laconia Municipal Airport

Location: Laconia, NH, United States Lat: 43.567
Local Time: 5:33 AM EST (10:33 GMT) Lon: -71.417
Time Zone: US/Eastern Elev: 544 ft

Show me the last for .
Show Decoded

2017-11-19 03:56 METAR KLCI 190856Z AUTO 00000KT 4SM RA BR OVC003 04/04 A2927 RMK AO2 SLP930
                 P0007 60015 T00390039 58045 =
2017-11-19 02:56 METAR KLCI 190756Z AUTO 00000KT 3SM -RA BR OVC003 04/03 A2931 RMK AO2 SLP945
                 P0001 T00390033 =
2017-11-19 01:56 METAR KLCI 190656Z AUTO 00000KT 4SM -RA BR OVC003 03/03 A2937 RMK AO2 SLP965
                 P0007 T00330033 =
2017-11-19 01:08 METAR KLCI 190608Z AUTO 00000KT 4SM -RA BR BKN003 OVC009 03/02 A2940 RMK AO2
                 P0002 =
2017-11-19 00:56 METAR KLCI 190556Z AUTO 00000KT 6SM -RA BR SCT003 OVC011 03/03 A2940 RMK AO2 CIG
                 008V013 SLP976 P0001 60027 T00330028 10033 20006 58047 =
2017-11-19 00:24 METAR KLCI 190524Z AUTO 05003KT 10SM FEW004 OVC011 03/03 A2943 RMK AO2 RAE21
                 P0000 =
2017-11-18 23:56 METAR KLCI 190456Z AUTO 06004KT 6SM -RA BR OVC004 03/02 A2945 RMK AO2 SLP991
                 P0013 T00280022 =
2017-11-18 22:56 METAR KLCI 190356Z AUTO VRB04KT 4SM -RA BR OVC004 02/02 A2950 RMK AO2 SLP007
                 P0003 T00220017 400331056 FZRANO =
2017-11-18 21:56 METAR KLCI 190256Z AUTO 04006KT 10SM -RA OVC004 02/02 A2954 RMK AO2
                 UPB06E32RAB32SNE06 SLP023 P0004 60010 T00220017 58040 FZRANO =
2017-11-18 21:18 METAR KLCI 190218Z AUTO 05004KT 7SM UP BKN004 OVC012 02/01 A2957 RMK AO2
                 UPB06SNE06 P0003 FZRANO =
2017-11-18 20:56 METAR KLCI 190156Z AUTO 04006KT 3SM -SN BR OVC012 02/01 A2959 RMK AO2 RAE46SNB46
                 SLP040 P0006 T00170011 FZRANO =
2017-11-18 19:56 METAR KLCI 190056Z AUTO 03003KT 9SM -RA OVC014 01/00 A2963 RMK AO2
                 RAE11B53UPB11E53 SLP052 P0000 T00110000 FZRANO =
2017-11-18 18:56 METAR KLCI 182356Z AUTO 00000KT 6SM -RA OVC022 02/M03 A2967 RMK AO2
                 UPB45E51RAB51 SLP064 P0000 60000 T00171028 10033 20017 56017 FZRANO =
2017-11-18 18:33 METAR KLCI 182333Z AUTO 24003KT 10SM OVC028 02/M04 A2967 RMK AO2 FZRANO =
2017-11-18 17:56 METAR KLCI 182256Z AUTO 00000KT 10SM BKN030 OVC046 02/M04 A2967 RMK AO2 SLP066
                 T00221044 FZRANO =
2017-11-18 16:56 METAR KLCI 182156Z AUTO 36003KT 10SM OVC049 02/M04 A2968 RMK AO2 SLP069
                 T00221044 FZRANO =
2017-11-18 15:56 METAR KLCI 182056Z AUTO 00000KT 10SM OVC090 03/M04 A2972 RMK AO2 SLP080
                 T00281039 56024 =
2017-11-18 14:56 METAR KLCI 181956Z AUTO 00000KT 10SM OVC110 03/M06 A2972 RMK AO2 SLP085
                 T00331056 =
2017-11-18 13:56 METAR KLCI 181856Z AUTO 00000KT 10SM FEW095 OVC120 03/M06 A2975 RMK AO2 SLP094
                 T00281061 =
2017-11-18 12:56 METAR KLCI 181756Z AUTO 00000KT 10SM BKN120 03/M07 A2979 RMK AO2 SLP105
                 T00281067 10033 21044 56037 =
2017-11-18 12:03 METAR KLCI 181703Z AUTO 02004KT 5SM HZ CLR 02/M06 A2981 RMK AO2 FZRANO =
2017-11-18 11:56 METAR KLCI 181656Z AUTO 04004KT 1 3/4SM HZ CLR 02/M07 A2982 RMK AO2 VIS 1/2V5
                 SLP115 T00221067 FZRANO =
2017-11-18 11:54 METAR KLCI 181654Z AUTO VRB04KT 1 3/4SM HZ CLR 02/M07 A2982 RMK AO2 VIS 1/2V5
                 FZRANO =
2017-11-18 10:56 METAR KLCI 181556Z AUTO 05004KT 10SM CLR 02/M12 A2985 RMK AO2 PRESFR SLP127
                 T00171117 FZRANO =
2017-11-18 09:56 METAR KLCI 181456Z AUTO 00000KT 10SM CLR 01/M12 A2990 RMK AO2 SLP144 T00061122
                 58009 FZRANO =
2017-11-18 08:56 METAR KLCI 181356Z AUTO 22007KT 10SM CLR M01/M10 A2993 RMK AO2 SLP153 T10111100
                 FZRANO =
2017-11-18 06:56 METAR KLCI 181156Z AUTO 25005KT 10SM CLR M04/M09 A2993 RMK AO2 SLP152 T10441094
                 11028 21056 58005 FZRANO =
2017-11-18 05:56 METAR KLCI 181056Z AUTO 26003KT 10SM CLR M03/M10 A2993 RMK AO2 SLP155 T10331100
                 FZRANO =

Support USWX by starting your Amazon purchase here.